CET,Max TemperatureF,Mean TemperatureF,Min TemperatureF,Max Dew PointF,MeanDew PointF,Min DewpointF,Max Humidity, Mean Humidity, Min Humidity, Max Sea Level PressureIn, Mean Sea Level PressureIn, Min Sea Level PressureIn, Max VisibilityMiles, Mean VisibilityMiles, Min VisibilityMiles, Max Wind SpeedMPH, Mean Wind SpeedMPH, Max Gust SpeedMPH,PrecipitationIn, CloudCover, Events, WindDirDegrees
2012-12-1,55,48,42,52,47,39,94,91,87,29.83,29.78,29.71,6,6,3,8,4,,0.00,5,Rain-Thunderstorm,24
2012-12-2,57,52,48,50,48,45,100,89,72,29.86,29.75,29.71,6,6,2,10,4,24,0.00,5,Rain-Thunderstorm,66
2012-12-3,53,45,37,46,38,30,93,69,41,30.06,29.87,29.65,6,6,4,20,8,33,0.00,3,Rain-Thunderstorm,323
2012-12-4,59,46,33,55,43,30,100,80,62,30.04,29.83,29.59,6,5,1,17,5,38,0.00,6,Rain,252
2012-12-5,57,48,39,46,42,36,100,76,44,29.68,29.63,29.56,6,6,5,16,8,,0.00,4,Rain-Thunderstorm,269
2012-12-6,51,43,35,39,35,30,100,76,47,29.92,29.77,29.68,6,6,5,6,4,,0.00,4,,351
2012-12-7,55,44,33,46,37,28,93,77,50,29.98,29.90,29.71,6,5,2,15,4,28,0.00,4,Rain,355
2012-12-8,57,49,41,50,42,34,94,79,58,29.71,29.56,29.53,6,5,2,22,7,24,0.00,5,Rain-Thunderstorm,247
2012-12-9,48,44,39,32,26,21,66,52,34,30.04,29.87,29.65,6,6,5,18,11,,0.00,2,,22
2012-12-10,53,42,30,48,35,21,93,76,56,30.04,29.85,29.59,6,5,3,17,4,26,0.00,5,Rain,321
2012-12-11,53,47,41,46,35,27,87,65,35,29.95,29.81,29.59,6,6,6,9,5,,0.00,3,,360
2012-12-12,50,44,37,32,29,23,70,59,35,30.18,30.07,29.95,5,5,5,8,6,,0.00,,,12
2012-12-13,51,43,35,36,32,28,81,65,47,30.21,30.19,30.18,6,6,4,7,5,,0.00,4,,353
2012-12-14,59,52,44,55,49,34,100,86,58,30.15,30.12,30.09,6,5,3,9,5,21,0.00,6,Rain-Thunderstorm,243
2012-12-15,62,60,59,61,56,54,100,86,77,30.15,30.11,30.06,6,5,5,12,7,23,0.00,5,Rain,206
2012-12-16,64,58,53,61,57,52,100,88,73,30.06,30.01,29.95,6,5,2,13,7,,0.00,6,Rain,207
2012-12-17,59,54,48,55,51,45,100,89,72,29.95,29.85,29.74,6,6,2,24,4,36,0.00,4,Rain-Thunderstorm,238
2012-12-18,57,49,39,46,43,36,100,82,55,29.83,29.78,29.74,5,5,2,7,4,,0.00,1,Fog,339
2012-12-19,57,46,35,39,35,28,87,64,33,30.09,29.96,29.83,6,6,5,10,5,,0.00,1,,358
2012-12-20,55,46,37,37,33,30,81,61,41,30.12,30.08,30.04,6,6,6,6,3,,0.00,1,,342
2012-12-21,51,48,46,48,42,37,94,80,71,30.01,29.86,29.77,6,6,5,12,4,,0.00,5,Rain,13
2012-12-22,55,50,44,43,39,36,81,68,58,30.12,29.99,29.86,6,6,6,20,8,,0.00,2,,29
2012-12-23,59,48,37,48,42,34,94,77,55,30.21,30.15,30.12,6,6,5,7,3,,0.00,4,,335
2012-12-24,59,54,48,54,51,46,94,86,77,30.27,30.23,30.18,6,4,3,7,1,,0.00,6,,31
2012-12-25,60,52,44,52,50,43,94,84,68,30.24,30.17,30.12,6,5,4,6,2,,0.00,5,,333
2012-12-26,64,54,44,55,49,43,100,80,64,30.12,30.05,30.01,6,5,2,14,4,25,0.00,4,,209
2012-12-27,62,55,48,57,52,46,100,87,68,30.15,30.12,30.04,6,6,3,10,4,,0.00,3,,243
2012-12-28,60,55,50,55,47,32,94,73,41,30.15,30.06,30.01,6,5,4,21,7,,0.00,4,Rain,341
2012-12-29,57,52,46,37,34,32,66,51,41,30.21,30.16,30.12,6,6,6,22,11,22,0.00,1,,29
2012-12-30,57,48,39,43,37,34,87,70,41,30.21,30.19,30.15,5,5,5,7,4,,0.00,,,329
2012-12-31,59,47,35,37,33,23,87,63,25,30.24,30.20,30.15,6,4,3,6,3,,0.00,1,,336